Time;durP1;ratioP1;P1;durP2;ratioP2;P2;SDS_P1;SDS_P2;PMS_P1;PMS_P2;Temp;Humidity;BMP_temperature;BMP_pressure;BME280_temperature;BME280_humidity;BME280_pressure;Samples;Min_cycle;Max_cycle;Signal;HPM_P1;HPM_P2
2022/05/29 00:05:46;;;;;;;18.17;6.93;;;;;;;;;;5020034;28;20058;-74
2022/05/29 00:08:33;;;;;;;26.25;11.77;;;;;;;;;;5069072;28;20394;-75
2022/05/29 00:11:22;;;;;;;22.33;11.15;;;;;;;;;;5121421;27;20055;-74
2022/05/29 00:14:00;;;;;;;21.08;11.25;;;;;;;;;;5134067;28;20047;-74
2022/05/29 00:17:01;;;;;;;20.80;11.02;;;;;;;;;;5050403;28;20145;-75
2022/05/29 00:19:36;;;;;;;21.08;11.57;;;;;;;;;;5037203;28;20584;-74
2022/05/29 00:22:05;;;;;;;23.83;10.75;;;;;;;;;;5030358;28;20057;-75
2022/05/29 00:25:11;;;;;;;22.48;9.23;;;;;;;;;;5031088;28;20040;-75
2022/05/29 00:32:01;;;;;;;26.60;10.65;;;;;;;;;;4970233;28;20494;-75
2022/05/29 00:34:58;;;;;;;;;;;;;;;;;;;;;
2022/05/29 00:41:27;;;;;;;;;;;;;;;;;;;;;
2022/05/29 00:47:43;;;;;;;16.58;6.80;;;;;;;;;;4972019;28;20144;-74
2022/05/29 00:50:43;;;;;;;17.33;7.20;;;;;;;;;;4969639;28;20059;-74
2022/05/29 00:53:58;;;;;;;;;;;;;;;;;;;;;
2022/05/29 01:00:09;;;;;;;13.38;5.70;;;;;;;;;;5033966;28;20075;-74
2022/05/29 01:02:56;;;;;;;16.27;5.40;;;;;;;;;;5029792;28;20054;-74
2022/05/29 01:05:32;;;;;;;18.38;6.63;;;;;;;;;;5033443;28;20076;-74
2022/05/29 01:11:42;;;;;;;;;;;;;;;;;;;;;
2022/05/29 01:14:57;;;;;;;;;;;;;;;;;;;;;
2022/05/29 01:21:11;;;;;;;9.50;3.30;;;;;;;;;;5014061;28;20093;-74
2022/05/29 01:24:20;;;;;;;15.32;4.45;;;;;;;;;;5013915;28;20061;-75
2022/05/29 01:27:14;;;;;;;13.65;4.10;;;;;;;;;;5014187;28;20042;-74
2022/05/29 01:30:36;;;;;;;11.50;3.50;;;;;;;;;;5014165;28;20044;-74
2022/05/29 01:33:32;;;;;;;12.07;4.43;;;;;;;;;;5013686;28;20038;-74
2022/05/29 01:36:26;;;;;;;12.25;3.95;;;;;;;;;;5013800;28;20151;-75
2022/05/29 01:39:12;;;;;;;9.63;3.72;;;;;;;;;;4997477;28;20053;-73
2022/05/29 01:48:40;;;;;;;13.55;5.03;;;;;;;;;;5013503;28;20126;-74
2022/05/29 02:05:12;;;;;;;17.35;5.32;;;;;;;;;;4974027;28;20098;-74
2022/05/29 02:07:59;;;;;;;13.68;5.03;;;;;;;;;;4973234;28;20078;-74
2022/05/29 02:10:53;;;;;;;21.45;6.18;;;;;;;;;;4969671;28;20051;-74
2022/05/29 02:14:12;;;;;;;16.80;5.00;;;;;;;;;;4955060;28;20091;-74
2022/05/29 02:17:16;;;;;;;;;;;;;;;;;;;;;
2022/05/29 02:22:42;;;;;;;14.27;5.07;;;;;;;;;;4938746;29;20059;-74
2022/05/29 02:25:49;;;;;;;11.75;4.47;;;;;;;;;;4927478;29;20062;-74
2022/05/29 02:28:40;;;;;;;15.93;5.13;;;;;;;;;;4954118;28;20527;-74
2022/05/29 02:31:31;;;;;;;20.83;5.40;;;;;;;;;;4954394;29;20134;-74
2022/05/29 02:34:51;;;;;;;25.13;5.90;;;;;;;;;;4954525;29;20113;-75
2022/05/29 02:37:16;;;;;;;18.67;5.55;;;;;;;;;;4951448;29;20059;-74
2022/05/29 02:39:52;;;;;;;17.10;5.55;;;;;;;;;;4954264;29;20117;-68
2022/05/29 02:42:37;;;;;;;18.17;5.43;;;;;;;;;;4983130;28;20062;-73
2022/05/29 02:45:56;;;;;;;;;;;;;;;;;;;;;
2022/05/29 02:49:22;;;;;;;18.75;5.03;;;;;;;;;;4859895;29;20057;-76
2022/05/29 02:52:17;;;;;;;12.30;5.07;;;;;;;;;;4860128;29;20116;-75
2022/05/29 02:55:11;;;;;;;15.10;4.82;;;;;;;;;;4859676;29;20093;-75
2022/05/29 02:57:37;;;;;;;23.25;4.95;;;;;;;;;;4844364;29;20109;-74
2022/05/29 03:03:36;;;;;;;18.20;4.85;;;;;;;;;;4859400;29;20513;-75
2022/05/29 03:06:20;;;;;;;15.68;4.45;;;;;;;;;;4859413;29;20056;-75
2022/05/29 03:12:39;;;;;;;14.90;5.20;;;;;;;;;;4858766;29;20473;-74
2022/05/29 03:23:02;;;;;;;17.85;4.93;;;;;;;;;;4834228;29;20052;-74
2022/05/29 03:25:46;;;;;;;15.75;4.68;;;;;;;;;;4783652;29;20042;-75
2022/05/29 03:31:58;;;;;;;;;;;;;;;;;;;;;
2022/05/29 03:41:43;;;;;;;20.10;4.53;;;;;;;;;;4715376;30;20796;-74
2022/05/29 03:44:27;;;;;;;14.00;4.78;;;;;;;;;;4715212;30;20060;-74
2022/05/29 03:50:04;;;;;;;;;;;;;;;;;;;;;
2022/05/29 03:53:16;;;;;;;15.55;4.80;;;;;;;;;;4730007;30;20060;-75
2022/05/29 04:00:42;;;;;;;12.82;4.82;;;;;;;;;;4766266;30;20093;-75
2022/05/29 04:03:18;;;;;;;;;;;;;;;;;;;;;
2022/05/29 04:06:14;;;;;;;;;;;;;;;;;;;;;
2022/05/29 04:15:13;;;;;;;17.35;4.55;;;;;;;;;;4858202;29;20121;-74
2022/05/29 04:17:51;;;;;;;16.27;4.78;;;;;;;;;;4858666;29;20053;-74
2022/05/29 04:20:36;;;;;;;16.00;5.15;;;;;;;;;;4860317;29;20049;-74
2022/05/29 04:23:26;;;;;;;15.23;4.40;;;;;;;;;;4895797;29;20053;-74
2022/05/29 04:26:14;;;;;;;12.15;3.95;;;;;;;;;;4895841;29;20048;-74
2022/05/29 04:28:41;;;;;;;13.82;3.90;;;;;;;;;;4901589;28;20080;-75
2022/05/29 04:31:15;;;;;;;14.80;3.90;;;;;;;;;;4972940;28;20047;-73
2022/05/29 04:46:48;;;;;;;12.38;3.40;;;;;;;;;;5014725;28;20404;-74
2022/05/29 04:52:51;;;;;;;13.68;3.65;;;;;;;;;;5014981;28;20220;-74
2022/05/29 05:01:42;;;;;;;14.50;3.17;;;;;;;;;;4955706;28;20195;-74
2022/05/29 05:04:33;;;;;;;12.25;3.20;;;;;;;;;;4939798;29;20039;-74
2022/05/29 05:14:47;;;;;;;13.63;3.20;;;;;;;;;;4898930;29;20055;-73
2022/05/29 05:17:32;;;;;;;15.55;2.90;;;;;;;;;;4898542;29;20052;-74
2022/05/29 05:20:51;;;;;;;;;;;;;;;;;;;;;
2022/05/29 05:27:34;;;;;;;;;;;;;;;;;;;;;
2022/05/29 05:34:00;;;;;;;13.68;2.95;;;;;;;;;;4919182;29;20107;-74
2022/05/29 05:36:52;;;;;;;16.98;4.63;;;;;;;;;;4928454;28;20074;-73
2022/05/29 05:39:30;;;;;;;18.90;6.40;;;;;;;;;;5010738;28;20061;-74
2022/05/29 05:43:05;;;;;;;14.25;3.45;;;;;;;;;;5013523;28;20161;-74
2022/05/29 05:56:23;;;;;;;12.15;2.10;;;;;;;;;;4917080;29;20116;-74
2022/05/29 05:59:26;;;;;;;16.85;2.97;;;;;;;;;;4917345;29;20384;-75
2022/05/29 06:02:23;;;;;;;11.90;2.45;;;;;;;;;;4931481;29;20051;-75
2022/05/29 06:05:28;;;;;;;;;;;;;;;;;;;;;
2022/05/29 06:22:07;;;;;;;;;;;;;;;;;;;;;
2022/05/29 06:25:12;;;;;;;;;;;;;;;;;;;;;
2022/05/29 06:31:33;;;;;;;;;;;;;;;;;;;;;
2022/05/29 06:34:37;;;;;;;15.15;3.17;;;;;;;;;;5064615;28;20062;-74
2022/05/29 06:37:39;;;;;;;9.93;2.08;;;;;;;;;;5032633;28;20060;-75
2022/05/29 06:40:34;;;;;;;16.40;3.25;;;;;;;;;;5032491;28;20053;-73
2022/05/29 06:50:31;;;;;;;13.35;2.78;;;;;;;;;;4935418;29;20089;-74
2022/05/29 06:53:34;;;;;;;10.45;2.65;;;;;;;;;;4937038;29;20078;-74
2022/05/29 06:56:21;;;;;;;;;;;;;;;;;;;;;
2022/05/29 07:07:37;;;;;;;11.38;2.20;;;;;;;;;;4934815;29;20055;-75
2022/05/29 07:10:03;;;;;;;15.57;2.90;;;;;;;;;;4934722;29;20060;-75
2022/05/29 07:12:36;;;;;;;14.02;2.78;;;;;;;;;;4952342;29;20131;-74
2022/05/29 07:15:18;;;;;;;;;;;;;;;;;;;;;
2022/05/29 07:24:59;;;;;;;;;;;;;;;;;;;;;
2022/05/29 07:30:54;;;;;;;14.48;2.60;;;;;;;;;;4991383;28;20121;-75
2022/05/29 07:33:20;;;;;;;12.68;2.60;;;;;;;;;;4975388;28;20173;-76
2022/05/29 07:35:46;;;;;;;14.23;2.40;;;;;;;;;;4992043;28;20125;-76
2022/05/29 07:44:37;;;;;;;14.93;3.03;;;;;;;;;;4992215;28;20156;-73
2022/05/29 08:00:47;;;;;;;17.15;2.75;;;;;;;;;;4896684;29;20052;-75
2022/05/29 08:13:41;;;;;;;;;;;;;;;;;;;;;
2022/05/29 08:16:27;;;;;;;14.60;2.60;;;;;;;;;;4934786;29;20428;-75
2022/05/29 08:19:33;;;;;;;;;;;;;;;;;;;;;
2022/05/29 08:22:47;;;;;;;15.05;2.88;;;;;;;;;;4942858;29;20057;-75
2022/05/29 08:36:01;;;;;;;;;;;;;;;;;;;;;
2022/05/29 08:42:35;;;;;;;10.23;1.98;;;;;;;;;;4914484;29;20066;-75
2022/05/29 08:45:18;;;;;;;;;;;;;;;;;;;;;
2022/05/29 09:18:14;;;;;;;8.13;1.88;;;;;;;;;;4934079;29;20515;-74
2022/05/29 09:21:24;;;;;;;;;;;;;;;;;;;;;
2022/05/29 09:24:25;;;;;;;;;;;;;;;;;;;;;
2022/05/29 09:27:27;;;;;;;;;;;;;;;;;;;;;
2022/05/29 09:30:46;;;;;;;8.13;2.13;;;;;;;;;;4817537;29;20107;-74
2022/05/29 09:40:30;;;;;;;;;;;;;;;;;;;;;
2022/05/29 10:24:28;;;;;;;9.85;1.45;;;;;;;;;;4769447;30;20061;-73
2022/05/29 10:27:07;;;;;;;;;;;;;;;;;;;;;
2022/05/29 10:53:41;;;;;;;;;;;;;;;;;;;;;
2022/05/29 11:00:03;;;;;;;6.57;1.45;;;;;;;;;;4804825;29;20438;-75
2022/05/29 11:09:52;;;;;;;;;;;;;;;;;;;;;
2022/05/29 11:33:55;;;;;;;7.25;1.63;;;;;;;;;;5093649;28;20150;-74
2022/05/29 11:37:31;;;;;;;9.00;1.73;;;;;;;;;;5093255;28;20483;-73
2022/05/29 11:39:43;;;;;;;7.40;1.60;;;;;;;;;;5085364;28;20102;-74
2022/05/29 11:52:26;;;;;;;;;;;;;;;;;;;;;
2022/05/29 11:55:14;;;;;;;13.52;1.95;;;;;;;;;;5089588;28;20063;-76
2022/05/29 11:57:52;;;;;;;6.70;1.23;;;;;;;;;;5093544;28;20040;-76
2022/05/29 12:00:27;;;;;;;7.38;1.42;;;;;;;;;;5093504;28;20044;-76
2022/05/29 12:06:50;;;;;;;5.15;1.33;;;;;;;;;;5092921;28;20437;-76
2022/05/29 12:09:58;;;;;;;9.10;1.75;;;;;;;;;;5092860;28;20042;-76
2022/05/29 12:12:34;;;;;;;6.15;1.40;;;;;;;;;;5092793;28;20044;-76
2022/05/29 12:15:04;;;;;;;4.13;1.30;;;;;;;;;;5092842;28;20501;-76
2022/05/29 12:17:49;;;;;;;;;;;;;;;;;;;;;
2022/05/29 12:30:33;;;;;;;5.72;1.15;;;;;;;;;;5093039;28;20059;-76
2022/05/29 12:33:02;;;;;;;5.50;0.90;;;;;;;;;;5092678;28;20383;-76
2022/05/29 12:35:36;;;;;;;4.00;0.90;;;;;;;;;;5093218;28;20051;-74
2022/05/29 12:38:42;;;;;;;5.43;1.02;;;;;;;;;;5086511;28;20070;-77
2022/05/29 12:41:33;;;;;;;4.80;1.40;;;;;;;;;;5092388;28;20491;-75
2022/05/29 12:51:27;;;;;;;8.32;1.90;;;;;;;;;;5092355;28;20410;-75
2022/05/29 12:54:21;;;;;;;20.73;5.03;;;;;;;;;;5098937;28;20040;-75
2022/05/29 12:57:09;;;;;;;5.55;1.42;;;;;;;;;;5094894;28;20056;-75
2022/05/29 13:03:35;;;;;;;;;;;;;;;;;;;;;
2022/05/29 13:06:33;;;;;;;4.22;1.10;;;;;;;;;;5096389;28;20040;-74
2022/05/29 13:09:33;;;;;;;6.07;1.38;;;;;;;;;;5095880;28;20137;-75
2022/05/29 13:22:54;;;;;;;4.10;1.30;;;;;;;;;;5054189;28;20060;-75
2022/05/29 13:26:48;;;;;;;;;;;;;;;;;;;;;
2022/05/29 13:29:23;;;;;;;6.90;1.63;;;;;;;;;;5040874;28;20044;-74
2022/05/29 13:35:45;;;;;;;7.40;1.83;;;;;;;;;;4974494;28;20046;-74
2022/05/29 13:38:44;;;;;;;11.18;1.67;;;;;;;;;;4984524;28;20135;-76
2022/05/29 13:41:26;;;;;;;6.80;1.30;;;;;;;;;;5046945;28;20052;-76
2022/05/29 13:43:52;;;;;;;6.20;1.27;;;;;;;;;;5054061;28;20088;-76
2022/05/29 13:52:55;;;;;;;4.80;1.40;;;;;;;;;;5077896;28;20052;-76
2022/05/29 13:55:52;;;;;;;21.83;3.42;;;;;;;;;;5096069;28;20040;-76
2022/05/29 14:08:46;;;;;;;9.13;1.77;;;;;;;;;;5053480;28;20035;-75
2022/05/29 14:11:44;;;;;;;5.63;1.40;;;;;;;;;;5052941;28;20049;-75
2022/05/29 14:14:35;;;;;;;6.97;1.83;;;;;;;;;;5046594;28;20754;-75
2022/05/29 14:20:54;;;;;;;8.57;1.70;;;;;;;;;;5052731;28;20136;-75
2022/05/29 14:24:06;;;;;;;9.55;2.00;;;;;;;;;;5052866;28;20384;-75
2022/05/29 14:29:44;;;;;;;4.40;1.40;;;;;;;;;;5052249;28;20049;-75
2022/05/29 14:36:38;;;;;;;;;;;;;;;;;;;;;
2022/05/29 14:40:10;;;;;;;9.05;2.10;;;;;;;;;;5073770;28;20116;-74
2022/05/29 14:42:54;;;;;;;;;;;;;;;;;;;;;
2022/05/29 14:45:29;;;;;;;22.00;4.88;;;;;;;;;;5074623;28;20071;-76
2022/05/29 14:48:33;;;;;;;7.13;1.83;;;;;;;;;;5074216;28;20098;-75
2022/05/29 14:51:35;;;;;;;;;;;;;;;;;;;;;
2022/05/29 14:54:26;;;;;;;8.32;1.67;;;;;;;;;;5051821;28;20063;-75
2022/05/29 14:57:23;;;;;;;15.50;3.63;;;;;;;;;;5071888;28;20402;-76
2022/05/29 15:00:01;;;;;;;11.35;1.83;;;;;;;;;;5094028;28;20127;-76
2022/05/29 15:03:12;;;;;;;10.15;2.08;;;;;;;;;;5093516;28;20051;-76
2022/05/29 15:05:47;;;;;;;11.70;2.25;;;;;;;;;;5085716;28;20052;-76
2022/05/29 15:11:05;;;;;;;10.47;1.73;;;;;;;;;;5094259;28;20044;-75
2022/05/29 15:16:45;;;;;;;11.07;2.20;;;;;;;;;;5068000;28;20044;-76
2022/05/29 15:29:38;;;;;;;10.27;1.80;;;;;;;;;;5030341;28;20045;-76
2022/05/29 15:32:41;;;;;;;12.07;1.80;;;;;;;;;;5030243;28;20115;-75
2022/05/29 15:35:07;;;;;;;7.95;1.73;;;;;;;;;;5030649;28;20041;-75
2022/05/29 15:38:01;;;;;;;;;;;;;;;;;;;;;
2022/05/29 15:40:52;;;;;;;8.65;2.00;;;;;;;;;;5029363;28;20057;-76
2022/05/29 15:43:37;;;;;;;10.95;2.30;;;;;;;;;;5030814;28;20057;-76
2022/05/29 15:46:30;;;;;;;8.82;2.08;;;;;;;;;;5031329;28;20046;-76
2022/05/29 15:49:25;;;;;;;14.18;2.15;;;;;;;;;;5030935;28;20183;-75
2022/05/29 15:52:37;;;;;;;;;;;;;;;;;;;;;
2022/05/29 15:55:51;;;;;;;7.13;1.60;;;;;;;;;;4991806;28;20049;-76
2022/05/29 15:58:36;;;;;;;8.23;1.80;;;;;;;;;;4991665;28;20050;-75
2022/05/29 16:01:11;;;;;;;19.98;3.17;;;;;;;;;;4991672;28;20116;-75
2022/05/29 16:03:38;;;;;;;10.70;2.05;;;;;;;;;;5019359;28;20072;-75
2022/05/29 16:06:09;;;;;;;7.75;2.08;;;;;;;;;;5030937;28;20155;-76
2022/05/29 16:11:59;;;;;;;11.57;2.15;;;;;;;;;;5023855;28;20041;-76
2022/05/29 16:14:53;;;;;;;;;;;;;;;;;;;;;
2022/05/29 16:24:41;;;;;;;;;;;;;;;;;;;;;
2022/05/29 16:27:31;;;;;;;11.43;2.17;;;;;;;;;;5095497;28;20044;-75
2022/05/29 16:30:03;;;;;;;13.88;2.90;;;;;;;;;;5096940;28;20044;-75
2022/05/29 16:33:02;;;;;;;10.27;1.90;;;;;;;;;;5096670;28;20538;-75
2022/05/29 16:35:46;;;;;;;11.63;1.95;;;;;;;;;;5097031;28;20736;-75
2022/05/29 16:48:10;;;;;;;8.98;1.83;;;;;;;;;;5096478;28;20051;-75
2022/05/29 16:51:13;;;;;;;;;;;;;;;;;;;;;
2022/05/29 16:54:28;;;;;;;16.40;2.45;;;;;;;;;;5096667;28;20055;-75
2022/05/29 16:57:13;;;;;;;19.95;3.22;;;;;;;;;;5096537;28;20449;-74
2022/05/29 17:03:43;;;;;;;9.75;1.98;;;;;;;;;;5096150;28;20035;-73
2022/05/29 17:06:38;;;;;;;;;;;;;;;;;;;;;
2022/05/29 17:16:37;;;;;;;8.27;1.85;;;;;;;;;;5096023;28;20095;-74
2022/05/29 17:22:38;;;;;;;9.77;1.60;;;;;;;;;;5096030;28;20088;-75
2022/05/29 17:25:04;;;;;;;;;;;;;;;;;;5096547;28;20036;-75
2022/05/29 17:27:57;;;;;;;19.00;3.25;;;;;;;;;;5095268;28;19920;-76
2022/05/29 17:30:36;;;;;;;13.13;3.08;;;;;;;;;;5095651;28;20050;-76
2022/05/29 17:33:08;;;;;;;15.27;2.33;;;;;;;;;;5095962;28;20065;-77
2022/05/29 17:38:41;;;;;;;9.65;1.85;;;;;;;;;;5095297;28;19920;-75
2022/05/29 17:41:07;;;;;;;9.02;1.85;;;;;;;;;;5095360;28;20530;-75
2022/05/29 17:43:42;;;;;;;8.13;1.52;;;;;;;;;;5095865;28;20055;-75
2022/05/29 17:46:13;;;;;;;7.82;1.52;;;;;;;;;;5095542;28;20102;-76
2022/05/29 17:58:52;;;;;;;12.68;1.95;;;;;;;;;;5037312;28;20109;-74
2022/05/29 18:05:52;;;;;;;;;;;;;;;;;;;;;
2022/05/29 18:11:30;;;;;;;11.27;1.85;;;;;;;;;;5012990;28;20054;-74
2022/05/29 18:13:56;;;;;;;13.50;2.22;;;;;;;;;;5012643;28;20580;-76
2022/05/29 18:17:29;;;;;;;11.07;1.90;;;;;;;;;;5007537;28;20096;-76
2022/05/29 18:19:38;;;;;;;16.55;2.58;;;;;;;;;;5005071;28;20421;-75
2022/05/29 18:22:04;;;;;;;;;;;;;;;;;;5013098;28;20057;-76
2022/05/29 18:24:48;;;;;;;7.57;2.25;;;;;;;;;;5012695;28;19929;-76
2022/05/29 18:27:26;;;;;;;8.27;1.50;;;;;;;;;;5012607;28;20046;-75
2022/05/29 18:33:27;;;;;;;9.23;2.00;;;;;;;;;;4915881;29;20048;-76
2022/05/29 18:36:00;;;;;;;11.77;2.08;;;;;;;;;;4916010;29;20063;-75
2022/05/29 18:38:37;;;;;;;9.25;1.95;;;;;;;;;;4915572;29;20060;-75
2022/05/29 18:41:26;;;;;;;7.63;1.73;;;;;;;;;;4887974;29;20062;-75
2022/05/29 18:43:52;;;;;;;10.18;1.92;;;;;;;;;;4916032;29;20063;-75
2022/05/29 18:46:37;;;;;;;9.23;1.75;;;;;;;;;;4915920;29;20044;-75
2022/05/29 18:49:31;;;;;;;9.75;2.22;;;;;;;;;;4972302;28;20046;-75
2022/05/29 18:52:48;;;;;;;6.18;1.60;;;;;;;;;;4944658;28;20398;-76
2022/05/29 18:55:24;;;;;;;9.35;1.75;;;;;;;;;;4973831;28;20058;-76
2022/05/29 18:57:50;;;;;;;12.48;1.98;;;;;;;;;;4992451;28;20103;-76
2022/05/29 19:00:28;;;;;;;13.88;1.42;;;;;;;;;;4973893;28;20424;-75
2022/05/29 19:02:54;;;;;;;10.48;1.50;;;;;;;;;;4992253;28;20073;-76
2022/05/29 19:08:49;;;;;;;;;;;;;;;;;;;;;
2022/05/29 19:11:40;;;;;;;9.25;1.70;;;;;;;;;;5091229;28;20060;-76
2022/05/29 19:20:54;;;;;;;8.68;2.17;;;;;;;;;;5086645;28;20055;-74
2022/05/29 19:37:05;;;;;;;9.20;1.42;;;;;;;;;;5091581;28;20406;-72
2022/05/29 19:40:00;;;;;;;;;;;;;;;;;;;;;
2022/05/29 19:43:01;;;;;;;8.60;1.38;;;;;;;;;;5089837;28;20407;-73
2022/05/29 19:49:08;;;;;;;9.38;1.70;;;;;;;;;;5091286;28;20476;-72
2022/05/29 20:02:10;;;;;;;10.30;2.40;;;;;;;;;;5090859;28;20061;-73
2022/05/29 20:07:58;;;;;;;7.90;1.83;;;;;;;;;;5091343;28;20123;-72
2022/05/29 20:10:27;;;;;;;5.00;1.38;;;;;;;;;;5118642;27;20115;-72
2022/05/29 20:16:23;;;;;;;7.70;1.48;;;;;;;;;;5129792;27;20184;-67
2022/05/29 20:19:14;;;;;;;7.57;2.17;;;;;;;;;;5133643;28;20050;-71
2022/05/29 20:22:16;;;;;;;;;;;;;;;;;;;;;
2022/05/29 20:31:42;;;;;;;8.02;1.60;;;;;;;;;;5130063;28;20115;-73
2022/05/29 20:34:39;;;;;;;9.75;1.70;;;;;;;;;;5127410;28;20099;-73
2022/05/29 20:37:12;;;;;;;5.32;1.80;;;;;;;;;;5130791;28;20039;-73
2022/05/29 20:43:19;;;;;;;9.80;1.67;;;;;;;;;;5133547;28;20550;-73
2022/05/29 20:59:16;;;;;;;9.00;1.63;;;;;;;;;;5133584;28;20074;-73
2022/05/29 21:08:11;;;;;;;8.90;1.80;;;;;;;;;;5133682;28;20047;-75
2022/05/29 21:10:38;;;;;;;9.00;1.85;;;;;;;;;;5133216;28;20039;-75
2022/05/29 21:13:04;;;;;;;6.82;1.90;;;;;;;;;;5133945;27;20039;-75
2022/05/29 21:15:30;;;;;;;8.75;1.75;;;;;;;;;;5136832;27;20051;-75
2022/05/29 21:17:56;;;;;;;11.25;2.22;;;;;;;;;;5136861;27;20501;-75
2022/05/29 21:20:22;;;;;;;7.95;1.75;;;;;;;;;;5136938;27;20442;-76
2022/05/29 21:22:48;;;;;;;10.80;2.08;;;;;;;;;;5136702;27;20115;-76
2022/05/29 21:25:14;;;;;;;10.80;2.20;;;;;;;;;;5137178;27;20043;-75
2022/05/29 21:27:40;;;;;;;7.38;2.13;;;;;;;;;;5136707;27;20072;-75
2022/05/29 21:30:06;;;;;;;11.63;2.53;;;;;;;;;;5118803;27;20046;-75
2022/05/29 21:32:32;;;;;;;12.70;2.78;;;;;;;;;;5118782;27;20035;-76
2022/05/29 21:34:58;;;;;;;11.93;2.00;;;;;;;;;;5136872;27;20040;-75
2022/05/29 21:40:09;;;;;;;10.23;1.83;;;;;;;;;;5136655;27;20086;-75
2022/05/29 21:42:35;;;;;;;9.55;2.20;;;;;;;;;;5136639;27;20043;-76
2022/05/29 21:45:01;;;;;;;9.57;1.63;;;;;;;;;;5136486;27;20100;-75
2022/05/29 21:47:27;;;;;;;9.93;1.80;;;;;;;;;;5118604;27;20058;-76
2022/05/29 21:49:53;;;;;;;12.10;2.55;;;;;;;;;;5136409;27;20043;-75
2022/05/29 21:52:19;;;;;;;10.52;2.05;;;;;;;;;;5136479;27;20047;-76
2022/05/29 21:54:45;;;;;;;8.30;2.05;;;;;;;;;;5136090;27;20043;-75
2022/05/29 21:57:13;;;;;;;12.35;2.15;;;;;;;;;;5136188;27;20039;-75
2022/05/29 21:59:39;;;;;;;11.53;2.13;;;;;;;;;;5136508;27;20055;-75
2022/05/29 22:02:05;;;;;;;9.10;1.60;;;;;;;;;;5136416;27;20050;-75
2022/05/29 22:04:31;;;;;;;7.35;1.98;;;;;;;;;;5118139;27;20511;-75
2022/05/29 22:06:57;;;;;;;18.98;4.97;;;;;;;;;;5136327;27;20043;-75
2022/05/29 22:09:23;;;;;;;10.88;1.90;;;;;;;;;;5136153;27;20039;-77
2022/05/29 22:11:48;;;;;;;9.50;1.65;;;;;;;;;;5135633;27;20039;-76
2022/05/29 22:14:14;;;;;;;11.65;2.58;;;;;;;;;;5135740;27;20051;-76
2022/05/29 22:16:41;;;;;;;7.47;2.10;;;;;;;;;;5135759;27;20035;-76
2022/05/29 22:19:07;;;;;;;11.50;2.03;;;;;;;;;;5135971;27;20126;-75
2022/05/29 22:21:35;;;;;;;7.20;2.05;;;;;;;;;;5117769;27;20039;-76
2022/05/29 22:24:02;;;;;;;10.48;2.20;;;;;;;;;;5135570;27;20519;-76
2022/05/29 22:26:29;;;;;;;7.03;2.20;;;;;;;;;;5135580;27;20054;-76
2022/05/29 22:28:59;;;;;;;8.20;1.98;;;;;;;;;;5135688;27;20061;-76
2022/05/29 22:31:43;;;;;;;6.93;1.75;;;;;;;;;;5135819;27;20092;-76
2022/05/29 22:34:15;;;;;;;11.63;2.00;;;;;;;;;;5135882;27;20391;-76
2022/05/29 22:36:52;;;;;;;8.02;1.65;;;;;;;;;;5135410;27;20524;-76
2022/05/29 22:39:18;;;;;;;11.50;2.30;;;;;;;;;;5135808;27;20051;-75
2022/05/29 22:41:44;;;;;;;6.20;1.70;;;;;;;;;;5135753;27;20047;-75
2022/05/29 22:44:10;;;;;;;7.97;1.75;;;;;;;;;;5135648;27;20413;-75
2022/05/29 22:46:42;;;;;;;9.00;1.83;;;;;;;;;;5135348;27;20497;-76
2022/05/29 22:49:14;;;;;;;9.77;1.70;;;;;;;;;;5135090;27;20043;-76
2022/05/29 22:51:43;;;;;;;10.25;1.70;;;;;;;;;;5135311;27;20036;-76
2022/05/29 22:54:09;;;;;;;7.82;2.22;;;;;;;;;;5135468;27;20043;-76
2022/05/29 22:56:35;;;;;;;7.10;2.10;;;;;;;;;;5135315;27;20050;-76
2022/05/29 22:59:01;;;;;;;10.45;2.00;;;;;;;;;;5134987;27;20058;-76
2022/05/29 23:01:28;;;;;;;10.40;1.88;;;;;;;;;;5117024;27;20039;-75
2022/05/29 23:04:03;;;;;;;6.45;1.67;;;;;;;;;;5134851;27;20123;-75
2022/05/29 23:06:29;;;;;;;7.22;2.10;;;;;;;;;;5132217;27;20069;-75
2022/05/29 23:08:55;;;;;;;10.45;2.00;;;;;;;;;;5134784;27;20043;-75
2022/05/29 23:11:24;;;;;;;9.23;2.10;;;;;;;;;;5133412;27;20039;-75
2022/05/29 23:13:50;;;;;;;5.35;1.73;;;;;;;;;;5134381;27;20035;-75
2022/05/29 23:16:16;;;;;;;8.25;2.15;;;;;;;;;;5134767;27;20470;-76
2022/05/29 23:18:42;;;;;;;10.48;2.45;;;;;;;;;;5134804;27;20035;-76
2022/05/29 23:21:08;;;;;;;9.00;1.63;;;;;;;;;;5134884;27;20041;-75
2022/05/29 23:23:34;;;;;;;6.40;1.95;;;;;;;;;;5135716;27;20406;-75
2022/05/29 23:26:01;;;;;;;10.98;1.98;;;;;;;;;;5137642;27;20478;-75
2022/05/29 23:28:27;;;;;;;9.43;2.00;;;;;;;;;;5116320;27;20043;-75
2022/05/29 23:30:56;;;;;;;7.03;2.08;;;;;;;;;;5134134;27;20043;-76
2022/05/29 23:33:22;;;;;;;7.63;1.75;;;;;;;;;;5134417;27;20046;-76
2022/05/29 23:35:48;;;;;;;5.80;1.67;;;;;;;;;;5133861;27;20050;-76
2022/05/29 23:38:16;;;;;;;5.80;1.85;;;;;;;;;;5134460;27;20039;-76
2022/05/29 23:40:43;;;;;;;9.88;2.03;;;;;;;;;;5134213;27;20051;-76
2022/05/29 23:43:09;;;;;;;7.30;1.80;;;;;;;;;;5134103;27;20043;-75
2022/05/29 23:45:40;;;;;;;10.95;1.92;;;;;;;;;;5133972;27;20035;-75
2022/05/29 23:48:19;;;;;;;8.73;1.70;;;;;;;;;;5134146;27;20047;-75
2022/05/29 23:50:45;;;;;;;7.10;1.90;;;;;;;;;;5134189;27;20048;-76
2022/05/29 23:53:11;;;;;;;8.88;1.92;;;;;;;;;;5134162;27;20061;-76
2022/05/29 23:55:37;;;;;;;7.93;1.83;;;;;;;;;;5134097;27;20047;-76
2022/05/29 23:58:03;;;;;;;9.38;1.92;;;;;;;;;;5134163;27;20049;-75
